< < Back
Terminal Aerodrome Forecast


Current Version              Previous Versions:   1  2  3  4  5  6  7  8  9  

Terminal Aerodrome Forecast

658
FTUS44 KBMX 231100
TAFBHM
TAF
KBHM 231127Z 2312/2412 33006KT P6SM SCT040
     FM232100 34008KT P6SM VCSH SCT050
     FM240300 00000KT P6SM SCT200=

Latest METAR

343
SAUS70 KWBC 231700 RRA
MTRBHM
METAR KBHM 231653Z 33009KT 10SM FEW042 33/21 A3005 RMK AO2 SLP165
T03280211


USA.gov is the U.S. government's official web portal to all federal, state and local government web resources and services.